sensor_id;sensor_type;location;lat;lon;timestamp;noise_LAeq;noise_LA_min;noise_LA_max;noise_LA01;noise_LA95
66463;Laerm;56827;52.178;4.500;2024-01-30T00:00:10;35.25;32.66;40.13;;
66463;Laerm;56827;52.178;4.500;2024-01-30T00:00:20;33.91;32.38;37.75;;
66463;Laerm;56827;52.178;4.500;2024-01-30T00:00:31;34.12;32.39;40.58;;
66463;Laerm;56827;52.178;4.500;2024-01-30T00:00:41;33.91;32.00;37.49;;
66463;Laerm;56827;52.178;4.500;2024-01-30T00:00:51;34.87;32.18;45.25;;
66463;Laerm;56827;52.178;4.500;2024-01-30T00:01:01;33.33;31.51;37.91;;
66463;Laerm;56827;52.178;4.500;2024-01-30T00:01:12;33.91;32.09;37.96;;
66463;Laerm;56827;52.178;4.500;2024-01-30T00:01:22;34.27;32.07;43.15;;
66463;Laerm;56827;52.178;4.500;2024-01-30T00:01:32;34.20;32.45;40.86;;
66463;Laerm;56827;52.178;4.500;2024-01-30T00:01:42;33.94;32.16;40.54;;
66463;Laerm;56827;52.178;4.500;2024-01-30T00:01:53;33.25;31.66;37.96;;
66463;Laerm;56827;52.178;4.500;2024-01-30T00:02:03;33.30;31.77;36.78;;
66463;Laerm;56827;52.178;4.500;2024-01-30T00:02:13;33.33;31.43;36.80;;
66463;Laerm;56827;52.178;4.500;2024-01-30T00:02:23;33.88;31.94;37.36;;
66463;Laerm;56827;52.178;4.500;2024-01-30T00:02:34;34.84;32.79;38.28;;
66463;Laerm;56827;52.178;4.500;2024-01-30T00:02:44;34.17;32.26;37.75;;
66463;Laerm;56827;52.178;4.500;2024-01-30T00:02:55;34.61;32.71;38.31;;
66463;Laerm;56827;52.178;4.500;2024-01-30T00:03:06;35.77;34.16;41.07;;
66463;Laerm;56827;52.178;4.500;2024-01-30T00:03:16;36.10;34.63;38.41;;
66463;Laerm;56827;52.178;4.500;2024-01-30T00:03:26;36.02;34.15;38.56;;
66463;Laerm;56827;52.178;4.500;2024-01-30T00:03:36;34.43;32.31;37.49;;
66463;Laerm;56827;52.178;4.500;2024-01-30T00:03:47;36.97;33.16;44.53;;
66463;Laerm;56827;52.178;4.500;2024-01-30T00:03:57;34.55;32.57;38.84;;
66463;Laerm;56827;52.178;4.500;2024-01-30T00:04:07;35.60;32.74;39.84;;
66463;Laerm;56827;52.178;4.500;2024-01-30T00:04:17;44.39;34.64;51.82;;
66463;Laerm;56827;52.178;4.500;2024-01-30T00:04:28;41.38;33.40;52.96;;
66463;Laerm;56827;52.178;4.500;2024-01-30T00:04:38;36.56;33.73;39.68;;
66463;Laerm;56827;52.178;4.500;2024-01-30T00:04:48;33.93;31.90;37.82;;
66463;Laerm;56827;52.178;4.500;2024-01-30T00:04:58;33.73;32.20;36.05;;
66463;Laerm;56827;52.178;4.500;2024-01-30T00:05:08;33.36;31.93;37.38;;
66463;Laerm;56827;52.178;4.500;2024-01-30T00:05:19;34.95;32.34;38.61;;
66463;Laerm;56827;52.178;4.500;2024-01-30T00:05:29;34.65;32.87;38.06;;
66463;Laerm;56827;52.178;4.500;2024-01-30T00:05:39;34.54;32.40;40.20;;
66463;Laerm;56827;52.178;4.500;2024-01-30T00:05:49;34.43;32.05;37.77;;
66463;Laerm;56827;52.178;4.500;2024-01-30T00:06:00;33.96;32.13;37.25;;
66463;Laerm;56827;52.178;4.500;2024-01-30T00:06:11;34.08;32.46;37.75;;
66463;Laerm;56827;52.178;4.500;2024-01-30T00:06:21;34.41;32.53;38.18;;
66463;Laerm;56827;52.178;4.500;2024-01-30T00:06:31;35.36;33.08;39.52;;
66463;Laerm;56827;52.178;4.500;2024-01-30T00:06:41;35.34;33.18;42.29;;
66463;Laerm;56827;52.178;4.500;2024-01-30T00:06:52;34.34;32.18;38.06;;
66463;Laerm;56827;52.178;4.500;2024-01-30T00:07:05;35.14;32.78;39.19;;
66463;Laerm;56827;52.178;4.500;2024-01-30T00:07:15;35.33;33.18;39.23;;
66463;Laerm;56827;52.178;4.500;2024-01-30T00:07:25;34.57;32.80;38.17;;
66463;Laerm;56827;52.178;4.500;2024-01-30T00:07:35;34.70;32.85;38.16;;
66463;Laerm;56827;52.178;4.500;2024-01-30T00:07:46;34.65;32.79;40.90;;
66463;Laerm;56827;52.178;4.500;2024-01-30T00:07:56;36.71;32.33;45.43;;
66463;Laerm;56827;52.178;4.500;2024-01-30T00:08:06;34.04;31.72;37.11;;
66463;Laerm;56827;52.178;4.500;2024-01-30T00:08:16;33.68;32.15;37.78;;
66463;Laerm;56827;52.178;4.500;2024-01-30T00:08:27;34.26;32.57;37.90;;
66463;Laerm;56827;52.178;4.500;2024-01-30T00:08:37;35.58;33.83;38.32;;
66463;Laerm;56827;52.178;4.500;2024-01-30T00:08:47;34.53;32.77;37.93;;
66463;Laerm;56827;52.178;4.500;2024-01-30T00:08:59;37.14;33.76;40.71;;
66463;Laerm;56827;52.178;4.500;2024-01-30T00:09:09;35.56;33.84;38.03;;
66463;Laerm;56827;52.178;4.500;2024-01-30T00:09:20;34.99;32.92;37.95;;
66463;Laerm;56827;52.178;4.500;2024-01-30T00:09:30;34.28;32.10;38.56;;
66463;Laerm;56827;52.178;4.500;2024-01-30T00:09:41;35.42;32.45;39.72;;
66463;Laerm;56827;52.178;4.500;2024-01-30T00:09:51;34.29;32.67;38.05;;
66463;Laerm;56827;52.178;4.500;2024-01-30T00:10:01;35.86;32.89;39.00;;
66463;Laerm;56827;52.178;4.500;2024-01-30T00:10:11;36.59;32.99;39.59;;
66463;Laerm;56827;52.178;4.500;2024-01-30T00:10:22;34.67;33.10;38.32;;
66463;Laerm;56827;52.178;4.500;2024-01-30T00:10:32;34.04;32.45;35.91;;
66463;Laerm;56827;52.178;4.500;2024-01-30T00:10:42;34.14;31.65;38.27;;
66463;Laerm;56827;52.178;4.500;2024-01-30T00:10:52;34.25;32.12;37.95;;
66463;Laerm;56827;52.178;4.500;2024-01-30T00:11:03;33.98;31.40;35.91;;
66463;Laerm;56827;52.178;4.500;2024-01-30T00:11:13;34.93;32.88;37.45;;
66463;Laerm;56827;52.178;4.500;2024-01-30T00:11:23;34.52;32.21;37.96;;
66463;Laerm;56827;52.178;4.500;2024-01-30T00:11:35;33.83;32.26;37.52;;
66463;Laerm;56827;52.178;4.500;2024-01-30T00:11:46;34.27;32.22;37.78;;
66463;Laerm;56827;52.178;4.500;2024-01-30T00:11:56;34.28;32.38;38.22;;
66463;Laerm;56827;52.178;4.500;2024-01-30T00:12:06;35.17;33.27;37.99;;
66463;Laerm;56827;52.178;4.500;2024-01-30T00:12:16;33.78;32.19;39.41;;
66463;Laerm;56827;52.178;4.500;2024-01-30T00:12:27;33.56;31.58;38.10;;
66463;Laerm;56827;52.178;4.500;2024-01-30T00:12:37;33.88;32.27;37.01;;
66463;Laerm;56827;52.178;4.500;2024-01-30T00:12:47;34.44;32.55;37.27;;
66463;Laerm;56827;52.178;4.500;2024-01-30T00:12:57;33.61;31.42;37.61;;
66463;Laerm;56827;52.178;4.500;2024-01-30T00:13:08;33.03;31.49;36.98;;
66463;Laerm;56827;52.178;4.500;2024-01-30T00:13:18;33.29;31.61;36.71;;
66463;Laerm;56827;52.178;4.500;2024-01-30T00:13:29;33.16;31.32;37.28;;
66463;Laerm;56827;52.178;4.500;2024-01-30T00:13:40;32.69;31.07;37.71;;
66463;Laerm;56827;52.178;4.500;2024-01-30T00:13:50;32.61;30.64;36.44;;
66463;Laerm;56827;52.178;4.500;2024-01-30T00:14:00;33.03;31.65;37.79;;
66463;Laerm;56827;52.178;4.500;2024-01-30T00:14:10;32.84;31.07;36.77;;
66463;Laerm;56827;52.178;4.500;2024-01-30T00:14:21;33.44;31.70;36.32;;
66463;Laerm;56827;52.178;4.500;2024-01-30T00:14:31;33.22;31.51;37.46;;
66463;Laerm;56827;52.178;4.500;2024-01-30T00:14:42;32.94;30.96;37.98;;
66463;Laerm;56827;52.178;4.500;2024-01-30T00:14:53;33.43;31.11;38.00;;
66463;Laerm;56827;52.178;4.500;2024-01-30T00:15:04;34.13;31.59;44.53;;
66463;Laerm;56827;52.178;4.500;2024-01-30T00:15:15;33.24;31.42;36.19;;
66463;Laerm;56827;52.178;4.500;2024-01-30T00:15:25;33.69;31.86;37.61;;
66463;Laerm;56827;52.178;4.500;2024-01-30T00:15:35;34.17;32.35;36.02;;
66463;Laerm;56827;52.178;4.500;2024-01-30T00:15:45;34.73;32.27;36.96;;
66463;Laerm;56827;52.178;4.500;2024-01-30T00:15:56;36.71;34.20;40.62;;
66463;Laerm;56827;52.178;4.500;2024-01-30T00:16:06;36.11;33.71;39.08;;
66463;Laerm;56827;52.178;4.500;2024-01-30T00:16:22;35.46;33.42;39.05;;
66463;Laerm;56827;52.178;4.500;2024-01-30T00:16:34;33.99;31.60;38.37;;
66463;Laerm;56827;52.178;4.500;2024-01-30T00:16:44;34.64;32.82;38.35;;
66463;Laerm;56827;52.178;4.500;2024-01-30T00:16:55;33.90;32.16;36.79;;
66463;Laerm;56827;52.178;4.500;2024-01-30T00:17:06;33.80;32.21;37.72;;
66463;Laerm;56827;52.178;4.500;2024-01-30T00:17:16;34.98;33.15;37.57;;
66463;Laerm;56827;52.178;4.500;2024-01-30T00:17:26;35.13;32.83;37.56;;
66463;Laerm;56827;52.178;4.500;2024-01-30T00:17:37;32.90;31.10;35.12;;
66463;Laerm;56827;52.178;4.500;2024-01-30T00:17:47;33.98;32.00;38.40;;
66463;Laerm;56827;52.178;4.500;2024-01-30T00:17:57;33.95;31.12;37.79;;
66463;Laerm;56827;52.178;4.500;2024-01-30T00:18:08;33.30;31.73;35.98;;
66463;Laerm;56827;52.178;4.500;2024-01-30T00:18:18;33.50;31.97;38.25;;
66463;Laerm;56827;52.178;4.500;2024-01-30T00:18:28;32.91;31.45;36.52;;
66463;Laerm;56827;52.178;4.500;2024-01-30T00:18:39;32.71;30.81;37.19;;
66463;Laerm;56827;52.178;4.500;2024-01-30T00:18:50;32.70;31.54;36.44;;
66463;Laerm;56827;52.178;4.500;2024-01-30T00:19:00;32.95;31.23;37.78;;
66463;Laerm;56827;52.178;4.500;2024-01-30T00:19:12;34.61;31.25;41.75;;
66463;Laerm;56827;52.178;4.500;2024-01-30T00:19:22;33.45;31.73;38.44;;
66463;Laerm;56827;52.178;4.500;2024-01-30T00:19:32;34.20;31.00;43.04;;
66463;Laerm;56827;52.178;4.500;2024-01-30T00:19:42;32.82;30.94;35.33;;
66463;Laerm;56827;52.178;4.500;2024-01-30T00:19:53;33.60;31.56;36.84;;
66463;Laerm;56827;52.178;4.500;2024-01-30T00:20:03;33.41;31.22;37.88;;
66463;Laerm;56827;52.178;4.500;2024-01-30T00:20:17;35.57;32.63;38.24;;
66463;Laerm;56827;52.178;4.500;2024-01-30T00:20:27;38.94;34.16;45.23;;
66463;Laerm;56827;52.178;4.500;2024-01-30T00:20:38;35.01;32.29;40.55;;
66463;Laerm;56827;52.178;4.500;2024-01-30T00:20:48;35.05;32.25;38.95;;
66463;Laerm;56827;52.178;4.500;2024-01-30T00:20:58;39.14;36.13;43.21;;
66463;Laerm;56827;52.178;4.500;2024-01-30T00:21:08;37.50;33.21;41.83;;
66463;Laerm;56827;52.178;4.500;2024-01-30T00:21:19;35.26;32.93;40.06;;
66463;Laerm;56827;52.178;4.500;2024-01-30T00:21:29;34.80;31.86;41.11;;
66463;Laerm;56827;52.178;4.500;2024-01-30T00:21:39;33.23;31.86;35.02;;
66463;Laerm;56827;52.178;4.500;2024-01-30T00:21:50;34.10;32.15;38.00;;
66463;Laerm;56827;52.178;4.500;2024-01-30T00:22:00;33.57;31.72;37.15;;
66463;Laerm;56827;52.178;4.500;2024-01-30T00:22:10;34.28;32.50;41.57;;
66463;Laerm;56827;52.178;4.500;2024-01-30T00:22:20;33.84;31.88;38.85;;
66463;Laerm;56827;52.178;4.500;2024-01-30T00:22:31;34.05;32.47;38.22;;
66463;Laerm;56827;52.178;4.500;2024-01-30T00:22:41;33.34;31.40;35.57;;
66463;Laerm;56827;52.178;4.500;2024-01-30T00:22:52;34.22;32.34;38.12;;
66463;Laerm;56827;52.178;4.500;2024-01-30T00:23:02;33.11;31.07;37.83;;
66463;Laerm;56827;52.178;4.500;2024-01-30T00:23:12;32.85;31.21;36.63;;
66463;Laerm;56827;52.178;4.500;2024-01-30T00:23:23;33.43;31.16;36.43;;
66463;Laerm;56827;52.178;4.500;2024-01-30T00:23:33;34.86;32.47;43.49;;
66463;Laerm;56827;52.178;4.500;2024-01-30T00:23:43;34.22;32.14;40.78;;
66463;Laerm;56827;52.178;4.500;2024-01-30T00:23:53;33.78;32.14;36.27;;
66463;Laerm;56827;52.178;4.500;2024-01-30T00:24:04;34.25;32.44;40.75;;
66463;Laerm;56827;52.178;4.500;2024-01-30T00:24:14;34.50;32.29;42.26;;
66463;Laerm;56827;52.178;4.500;2024-01-30T00:24:24;34.21;32.05;39.13;;
66463;Laerm;56827;52.178;4.500;2024-01-30T00:24:34;34.78;32.31;37.35;;
66463;Laerm;56827;52.178;4.500;2024-01-30T00:24:45;35.34;32.91;38.96;;
66463;Laerm;56827;52.178;4.500;2024-01-30T00:24:55;35.53;33.61;39.48;;
66463;Laerm;56827;52.178;4.500;2024-01-30T00:25:05;33.81;31.96;39.44;;
66463;Laerm;56827;52.178;4.500;2024-01-30T00:25:15;33.61;31.85;41.41;;
66463;Laerm;56827;52.178;4.500;2024-01-30T00:25:26;33.64;32.03;39.77;;
66463;Laerm;56827;52.178;4.500;2024-01-30T00:25:36;33.27;31.50;37.79;;
66463;Laerm;56827;52.178;4.500;2024-01-30T00:25:46;33.47;31.81;37.84;;
66463;Laerm;56827;52.178;4.500;2024-01-30T00:25:56;33.73;32.21;36.36;;
66463;Laerm;56827;52.178;4.500;2024-01-30T00:26:07;34.42;32.67;39.49;;
66463;Laerm;56827;52.178;4.500;2024-01-30T00:26:17;35.33;33.21;38.00;;
66463;Laerm;56827;52.178;4.500;2024-01-30T00:26:27;34.36;31.68;37.93;;
66463;Laerm;56827;52.178;4.500;2024-01-30T00:26:37;33.38;31.72;37.69;;
66463;Laerm;56827;52.178;4.500;2024-01-30T00:26:47;33.87;32.19;37.67;;
66463;Laerm;56827;52.178;4.500;2024-01-30T00:26:58;33.94;32.14;37.28;;
66463;Laerm;56827;52.178;4.500;2024-01-30T00:27:08;34.18;32.07;37.25;;
66463;Laerm;56827;52.178;4.500;2024-01-30T00:27:18;34.04;31.88;44.67;;
66463;Laerm;56827;52.178;4.500;2024-01-30T00:27:28;33.74;31.88;38.29;;
66463;Laerm;56827;52.178;4.500;2024-01-30T00:27:39;34.03;32.26;36.98;;
66463;Laerm;56827;52.178;4.500;2024-01-30T00:27:49;34.68;32.78;37.85;;
66463;Laerm;56827;52.178;4.500;2024-01-30T00:27:59;34.10;32.07;37.20;;
66463;Laerm;56827;52.178;4.500;2024-01-30T00:28:10;36.73;34.21;40.86;;
66463;Laerm;56827;52.178;4.500;2024-01-30T00:28:20;38.22;35.22;42.81;;
66463;Laerm;56827;52.178;4.500;2024-01-30T00:28:30;34.88;32.57;39.39;;
66463;Laerm;56827;52.178;4.500;2024-01-30T00:28:41;35.09;32.63;38.88;;
66463;Laerm;56827;52.178;4.500;2024-01-30T00:28:51;33.47;31.83;37.58;;
66463;Laerm;56827;52.178;4.500;2024-01-30T00:29:02;33.57;31.42;37.83;;
66463;Laerm;56827;52.178;4.500;2024-01-30T00:29:12;34.06;32.08;43.76;;
66463;Laerm;56827;52.178;4.500;2024-01-30T00:29:29;33.83;31.91;38.22;;
66463;Laerm;56827;52.178;4.500;2024-01-30T00:29:41;33.73;32.19;37.24;;
66463;Laerm;56827;52.178;4.500;2024-01-30T00:29:51;32.89;31.26;35.14;;
66463;Laerm;56827;52.178;4.500;2024-01-30T00:30:01;32.51;31.17;37.85;;
66463;Laerm;56827;52.178;4.500;2024-01-30T00:30:12;33.19;30.85;37.81;;
66463;Laerm;56827;52.178;4.500;2024-01-30T00:30:22;32.96;31.29;37.89;;
66463;Laerm;56827;52.178;4.500;2024-01-30T00:30:32;32.54;31.06;37.57;;
66463;Laerm;56827;52.178;4.500;2024-01-30T00:30:43;32.80;31.19;36.96;;
66463;Laerm;56827;52.178;4.500;2024-01-30T00:30:53;33.01;31.13;37.91;;
66463;Laerm;56827;52.178;4.500;2024-01-30T00:31:04;33.28;31.71;37.66;;
66463;Laerm;56827;52.178;4.500;2024-01-30T00:31:14;33.13;31.57;36.54;;
66463;Laerm;56827;52.178;4.500;2024-01-30T00:31:24;35.27;31.55;45.74;;
66463;Laerm;56827;52.178;4.500;2024-01-30T00:31:35;33.43;30.91;40.32;;
66463;Laerm;56827;52.178;4.500;2024-01-30T00:31:45;33.41;31.65;37.00;;
66463;Laerm;56827;52.178;4.500;2024-01-30T00:31:55;33.41;31.02;37.23;;
66463;Laerm;56827;52.178;4.500;2024-01-30T00:32:06;33.16;31.39;35.64;;
66463;Laerm;56827;52.178;4.500;2024-01-30T00:32:16;33.22;31.66;37.49;;
66463;Laerm;56827;52.178;4.500;2024-01-30T00:32:26;33.69;31.83;37.60;;
66463;Laerm;56827;52.178;4.500;2024-01-30T00:32:37;35.42;33.00;38.74;;
66463;Laerm;56827;52.178;4.500;2024-01-30T00:32:47;35.28;33.61;37.19;;
66463;Laerm;56827;52.178;4.500;2024-01-30T00:32:57;35.10;32.14;38.05;;
66463;Laerm;56827;52.178;4.500;2024-01-30T00:33:08;33.59;31.57;37.37;;
66463;Laerm;56827;52.178;4.500;2024-01-30T00:33:18;33.24;31.38;37.35;;
66463;Laerm;56827;52.178;4.500;2024-01-30T00:33:28;33.28;31.38;38.03;;
66463;Laerm;56827;52.178;4.500;2024-01-30T00:33:39;33.03;30.90;37.15;;
66463;Laerm;56827;52.178;4.500;2024-01-30T00:33:49;33.10;31.36;37.60;;
66463;Laerm;56827;52.178;4.500;2024-01-30T00:33:59;33.97;31.96;37.71;;
66463;Laerm;56827;52.178;4.500;2024-01-30T00:34:09;33.93;31.60;36.80;;
66463;Laerm;56827;52.178;4.500;2024-01-30T00:34:20;33.17;31.73;36.55;;
66463;Laerm;56827;52.178;4.500;2024-01-30T00:34:31;33.40;31.91;36.70;;
66463;Laerm;56827;52.178;4.500;2024-01-30T00:34:41;38.12;32.63;50.62;;
66463;Laerm;56827;52.178;4.500;2024-01-30T00:34:51;35.41;32.90;41.81;;
66463;Laerm;56827;52.178;4.500;2024-01-30T00:35:02;34.35;32.40;41.34;;
66463;Laerm;56827;52.178;4.500;2024-01-30T00:35:12;33.17;31.20;37.62;;
66463;Laerm;56827;52.178;4.500;2024-01-30T00:35:22;33.12;31.78;37.27;;
66463;Laerm;56827;52.178;4.500;2024-01-30T00:35:33;32.88;30.71;36.04;;
66463;Laerm;56827;52.178;4.500;2024-01-30T00:35:43;33.01;31.62;34.85;;
66463;Laerm;56827;52.178;4.500;2024-01-30T00:35:53;33.46;31.85;36.66;;
66463;Laerm;56827;52.178;4.500;2024-01-30T00:36:03;34.35;32.48;37.05;;
66463;Laerm;56827;52.178;4.500;2024-01-30T00:36:14;33.71;32.24;35.74;;
66463;Laerm;56827;52.178;4.500;2024-01-30T00:36:25;33.48;32.07;37.77;;
66463;Laerm;56827;52.178;4.500;2024-01-30T00:36:35;33.18;31.43;37.68;;
66463;Laerm;56827;52.178;4.500;2024-01-30T00:36:45;33.29;31.45;37.85;;
66463;Laerm;56827;52.178;4.500;2024-01-30T00:36:55;33.30;31.46;35.45;;
66463;Laerm;56827;52.178;4.500;2024-01-30T00:37:06;32.92;31.12;38.45;;
66463;Laerm;56827;52.178;4.500;2024-01-30T00:37:17;32.61;30.68;37.05;;
66463;Laerm;56827;52.178;4.500;2024-01-30T00:37:27;32.54;30.79;35.98;;
66463;Laerm;56827;52.178;4.500;2024-01-30T00:37:37;32.60;30.99;36.57;;
66463;Laerm;56827;52.178;4.500;2024-01-30T00:37:48;32.92;31.37;36.04;;
66463;Laerm;56827;52.178;4.500;2024-01-30T00:37:58;33.06;31.43;36.23;;
66463;Laerm;56827;52.178;4.500;2024-01-30T00:38:08;37.28;31.52;52.54;;
66463;Laerm;56827;52.178;4.500;2024-01-30T00:38:18;37.95;31.57;52.67;;
66463;Laerm;56827;52.178;4.500;2024-01-30T00:38:28;32.56;30.84;35.05;;
66463;Laerm;56827;52.178;4.500;2024-01-30T00:38:39;32.92;31.18;36.43;;
66463;Laerm;56827;52.178;4.500;2024-01-30T00:38:50;32.88;31.28;37.32;;
66463;Laerm;56827;52.178;4.500;2024-01-30T00:39:01;32.91;30.92;37.42;;
66463;Laerm;56827;52.178;4.500;2024-01-30T00:39:11;32.40;30.83;37.27;;
66463;Laerm;56827;52.178;4.500;2024-01-30T00:39:21;32.76;30.73;37.20;;
66463;Laerm;56827;52.178;4.500;2024-01-30T00:39:32;33.50;31.51;37.81;;
66463;Laerm;56827;52.178;4.500;2024-01-30T00:39:42;33.62;32.03;37.98;;
66463;Laerm;56827;52.178;4.500;2024-01-30T00:39:52;33.67;31.56;36.82;;
66463;Laerm;56827;52.178;4.500;2024-01-30T00:40:02;33.35;31.45;34.99;;
66463;Laerm;56827;52.178;4.500;2024-01-30T00:40:13;32.93;31.03;34.25;;
66463;Laerm;56827;52.178;4.500;2024-01-30T00:40:25;33.30;31.01;35.94;;
66463;Laerm;56827;52.178;4.500;2024-01-30T00:40:36;33.64;31.98;37.03;;
66463;Laerm;56827;52.178;4.500;2024-01-30T00:40:46;33.42;31.41;37.13;;
66463;Laerm;56827;52.178;4.500;2024-01-30T00:40:56;33.25;31.07;37.57;;
66463;Laerm;56827;52.178;4.500;2024-01-30T00:41:07;33.02;31.00;38.63;;
66463;Laerm;56827;52.178;4.500;2024-01-30T00:41:18;32.46;30.93;35.77;;
66463;Laerm;56827;52.178;4.500;2024-01-30T00:41:29;32.51;31.25;34.99;;
66463;Laerm;56827;52.178;4.500;2024-01-30T00:41:39;32.92;31.31;36.05;;
66463;Laerm;56827;52.178;4.500;2024-01-30T00:41:49;33.18;31.76;35.46;;
66463;Laerm;56827;52.178;4.500;2024-01-30T00:42:00;33.85;31.96;36.03;;
66463;Laerm;56827;52.178;4.500;2024-01-30T00:42:10;33.81;31.94;37.34;;
66463;Laerm;56827;52.178;4.500;2024-01-30T00:42:20;33.78;32.17;36.90;;
66463;Laerm;56827;52.178;4.500;2024-01-30T00:42:31;33.63;31.30;36.68;;
66463;Laerm;56827;52.178;4.500;2024-01-30T00:42:42;33.33;31.25;40.02;;
66463;Laerm;56827;52.178;4.500;2024-01-30T00:42:52;35.22;31.65;51.56;;
66463;Laerm;56827;52.178;4.500;2024-01-30T00:43:02;33.24;31.82;37.09;;
66463;Laerm;56827;52.178;4.500;2024-01-30T00:43:13;33.61;31.58;37.58;;
66463;Laerm;56827;52.178;4.500;2024-01-30T00:43:23;34.72;33.12;40.19;;
66463;Laerm;56827;52.178;4.500;2024-01-30T00:43:35;34.55;32.53;41.50;;
66463;Laerm;56827;52.178;4.500;2024-01-30T00:43:45;33.71;31.52;37.39;;
66463;Laerm;56827;52.178;4.500;2024-01-30T00:43:55;33.31;31.66;36.16;;
66463;Laerm;56827;52.178;4.500;2024-01-30T00:44:06;33.16;31.71;37.11;;
66463;Laerm;56827;52.178;4.500;2024-01-30T00:44:16;33.02;31.29;37.39;;
66463;Laerm;56827;52.178;4.500;2024-01-30T00:44:26;32.42;30.78;34.94;;
66463;Laerm;56827;52.178;4.500;2024-01-30T00:44:36;32.74;31.35;35.28;;
66463;Laerm;56827;52.178;4.500;2024-01-30T00:44:49;32.76;30.54;37.39;;
66463;Laerm;56827;52.178;4.500;2024-01-30T00:45:00;32.60;30.29;36.19;;
66463;Laerm;56827;52.178;4.500;2024-01-30T00:45:16;32.53;30.78;35.91;;
66463;Laerm;56827;52.178;4.500;2024-01-30T00:45:26;32.47;30.92;36.70;;
66463;Laerm;56827;52.178;4.500;2024-01-30T00:45:36;32.53;31.13;37.22;;
66463;Laerm;56827;52.178;4.500;2024-01-30T00:45:47;32.78;31.31;37.02;;
66463;Laerm;56827;52.178;4.500;2024-01-30T00:45:57;32.29;30.66;36.81;;
66463;Laerm;56827;52.178;4.500;2024-01-30T00:46:08;32.24;30.74;36.32;;
66463;Laerm;56827;52.178;4.500;2024-01-30T00:46:18;32.58;30.41;37.05;;
66463;Laerm;56827;52.178;4.500;2024-01-30T00:46:28;32.91;31.33;37.71;;
66463;Laerm;56827;52.178;4.500;2024-01-30T00:46:38;34.08;31.79;38.11;;
66463;Laerm;56827;52.178;4.500;2024-01-30T00:46:49;34.15;32.29;38.26;;
66463;Laerm;56827;52.178;4.500;2024-01-30T00:46:59;33.70;31.58;36.95;;
66463;Laerm;56827;52.178;4.500;2024-01-30T00:47:09;34.28;32.42;37.96;;
66463;Laerm;56827;52.178;4.500;2024-01-30T00:47:19;35.93;34.25;37.78;;
66463;Laerm;56827;52.178;4.500;2024-01-30T00:47:29;35.07;33.47;37.30;;
66463;Laerm;56827;52.178;4.500;2024-01-30T00:47:40;34.68;32.40;37.68;;
66463;Laerm;56827;52.178;4.500;2024-01-30T00:47:50;32.76;31.26;36.65;;
66463;Laerm;56827;52.178;4.500;2024-01-30T00:48:00;32.79;30.98;36.49;;
66463;Laerm;56827;52.178;4.500;2024-01-30T00:48:11;32.97;31.48;37.75;;
66463;Laerm;56827;52.178;4.500;2024-01-30T00:48:21;33.97;32.33;36.50;;
66463;Laerm;56827;52.178;4.500;2024-01-30T00:48:31;33.51;31.34;40.73;;
66463;Laerm;56827;52.178;4.500;2024-01-30T00:48:41;33.85;32.14;36.99;;
66463;Laerm;56827;52.178;4.500;2024-01-30T00:48:52;33.82;31.95;38.96;;
66463;Laerm;56827;52.178;4.500;2024-01-30T00:49:02;33.79;31.46;40.53;;
66463;Laerm;56827;52.178;4.500;2024-01-30T00:49:12;32.84;31.38;34.90;;
66463;Laerm;56827;52.178;4.500;2024-01-30T00:49:22;33.18;31.47;36.42;;
66463;Laerm;56827;52.178;4.500;2024-01-30T00:49:33;32.65;30.85;37.10;;
66463;Laerm;56827;52.178;4.500;2024-01-30T00:49:43;33.23;31.28;36.95;;
66463;Laerm;56827;52.178;4.500;2024-01-30T00:49:53;33.69;32.24;37.80;;
66463;Laerm;56827;52.178;4.500;2024-01-30T00:50:03;32.74;31.12;34.79;;
66463;Laerm;56827;52.178;4.500;2024-01-30T00:50:14;33.42;31.17;36.10;;
66463;Laerm;56827;52.178;4.500;2024-01-30T00:50:24;33.83;31.71;36.52;;
66463;Laerm;56827;52.178;4.500;2024-01-30T00:50:34;33.39;31.79;37.65;;
66463;Laerm;56827;52.178;4.500;2024-01-30T00:50:44;33.05;31.40;37.25;;
66463;Laerm;56827;52.178;4.500;2024-01-30T00:50:55;32.46;30.77;37.23;;
66463;Laerm;56827;52.178;4.500;2024-01-30T00:51:05;32.68;31.29;37.36;;
66463;Laerm;56827;52.178;4.500;2024-01-30T00:51:15;33.02;31.01;36.87;;
66463;Laerm;56827;52.178;4.500;2024-01-30T00:51:25;33.15;31.61;37.14;;
66463;Laerm;56827;52.178;4.500;2024-01-30T00:51:36;33.23;31.09;37.48;;
66463;Laerm;56827;52.178;4.500;2024-01-30T00:51:46;32.77;31.23;37.52;;
66463;Laerm;56827;52.178;4.500;2024-01-30T00:51:56;32.63;30.91;36.36;;
66463;Laerm;56827;52.178;4.500;2024-01-30T00:52:06;32.51;31.22;34.32;;
66463;Laerm;56827;52.178;4.500;2024-01-30T00:52:17;33.10;31.16;36.58;;
66463;Laerm;56827;52.178;4.500;2024-01-30T00:52:27;33.85;31.87;37.69;;
66463;Laerm;56827;52.178;4.500;2024-01-30T00:52:37;33.26;30.75;35.10;;
66463;Laerm;56827;52.178;4.500;2024-01-30T00:52:50;32.84;31.17;37.19;;
66463;Laerm;56827;52.178;4.500;2024-01-30T00:53:00;32.68;30.98;35.85;;
66463;Laerm;56827;52.178;4.500;2024-01-30T00:53:11;33.70;31.62;37.93;;
66463;Laerm;56827;52.178;4.500;2024-01-30T00:53:21;32.84;31.26;36.30;;
66463;Laerm;56827;52.178;4.500;2024-01-30T00:53:31;32.80;31.09;36.46;;
66463;Laerm;56827;52.178;4.500;2024-01-30T00:53:42;32.94;31.58;37.29;;
66463;Laerm;56827;52.178;4.500;2024-01-30T00:53:52;32.84;31.36;38.61;;
66463;Laerm;56827;52.178;4.500;2024-01-30T00:54:02;32.78;31.09;37.24;;
66463;Laerm;56827;52.178;4.500;2024-01-30T00:54:13;32.51;31.04;37.19;;
66463;Laerm;56827;52.178;4.500;2024-01-30T00:54:23;32.94;31.26;37.32;;
66463;Laerm;56827;52.178;4.500;2024-01-30T00:54:33;32.77;31.19;37.50;;
66463;Laerm;56827;52.178;4.500;2024-01-30T00:54:43;32.94;31.16;35.93;;
66463;Laerm;56827;52.178;4.500;2024-01-30T00:54:53;32.60;30.93;36.72;;
66463;Laerm;56827;52.178;4.500;2024-01-30T00:55:04;32.25;30.17;36.98;;
66463;Laerm;56827;52.178;4.500;2024-01-30T00:55:14;32.42;30.73;35.15;;
66463;Laerm;56827;52.178;4.500;2024-01-30T00:55:25;32.82;30.98;35.62;;
66463;Laerm;56827;52.178;4.500;2024-01-30T00:55:35;32.62;30.93;35.20;;
66463;Laerm;56827;52.178;4.500;2024-01-30T00:55:45;32.54;31.11;36.85;;
66463;Laerm;56827;52.178;4.500;2024-01-30T00:55:56;32.52;30.81;35.71;;
66463;Laerm;56827;52.178;4.500;2024-01-30T00:56:06;32.92;31.43;36.67;;
66463;Laerm;56827;52.178;4.500;2024-01-30T00:56:16;32.63;30.89;36.47;;
66463;Laerm;56827;52.178;4.500;2024-01-30T00:56:28;32.54;30.72;36.08;;
66463;Laerm;56827;52.178;4.500;2024-01-30T00:56:38;35.73;31.10;41.73;;
66463;Laerm;56827;52.178;4.500;2024-01-30T00:56:49;32.95;30.67;37.29;;
66463;Laerm;56827;52.178;4.500;2024-01-30T00:56:59;38.37;29.99;56.00;;
66463;Laerm;56827;52.178;4.500;2024-01-30T00:57:09;32.31;30.87;34.33;;
66463;Laerm;56827;52.178;4.500;2024-01-30T00:57:19;32.77;30.76;36.92;;
66463;Laerm;56827;52.178;4.500;2024-01-30T00:57:29;32.96;31.49;37.03;;
66463;Laerm;56827;52.178;4.500;2024-01-30T00:57:40;32.78;31.01;37.60;;
66463;Laerm;56827;52.178;4.500;2024-01-30T00:57:50;32.29;30.62;37.22;;
66463;Laerm;56827;52.178;4.500;2024-01-30T00:58:00;32.02;30.59;34.31;;
66463;Laerm;56827;52.178;4.500;2024-01-30T00:58:11;32.15;30.43;34.41;;
66463;Laerm;56827;52.178;4.500;2024-01-30T00:58:21;32.81;31.19;37.58;;
66463;Laerm;56827;52.178;4.500;2024-01-30T00:58:31;33.16;31.22;36.84;;